Time;durP1;ratioP1;P1;durP2;ratioP2;P2;SDS_P1;SDS_P2;PMS_P1;PMS_P2;Temp;Humidity;BMP_temperature;BMP_pressure;BME280_temperature;BME280_humidity;BME280_pressure;Samples;Min_cycle;Max_cycle;Signal;HPM_P1;HPM_P2
2022/01/28 05:24:24;;;;;;;226.22;69.32;;;;;;;3.01;42.62;100263.63;1717654;81;23229;-60
2022/01/28 05:26:51;;;;;;;266.48;76.87;;;;;;;3.06;42.61;100264.03;1713746;81;21065;-70
2022/01/28 05:29:07;;;;;;;161.92;62.10;;;;;;;3.24;42.39;100262.09;1750634;80;21235;-65
2022/01/28 05:31:34;;;;;;;174.32;63.95;;;;;;;3.51;42.00;100250.61;1751180;80;21479;-58
2022/01/28 05:34:01;;;;;;;177.55;60.33;;;;;;;3.51;42.19;100257.05;1754200;80;21014;-59
2022/01/28 05:36:28;;;;;;;109.72;48.05;;;;;;;3.59;42.00;100247.34;1754897;80;21149;-69
2022/01/28 05:38:55;;;;;;;77.70;36.77;;;;;;;3.80;41.73;100247.18;1755294;80;21012;-58
2022/01/28 05:41:22;;;;;;;62.95;30.15;;;;;;;3.81;41.63;100241.06;1751638;80;21070;-57
2022/01/28 05:43:48;;;;;;;52.50;27.87;;;;;;;3.69;41.82;100244.77;1754150;80;21098;-57
2022/01/28 05:46:17;;;;;;;50.65;25.35;;;;;;;3.76;41.73;100244.55;1715031;82;21003;-60
2022/01/28 05:48:43;;;;;;;47.30;24.47;;;;;;;3.80;41.67;100245.41;1717242;81;22076;-66
2022/01/28 05:51:11;;;;;;;54.30;26.80;;;;;;;3.84;41.74;100236.44;1717235;81;22458;-57
2022/01/28 05:53:38;;;;;;;50.43;26.05;;;;;;;3.83;41.69;100232.73;1716196;81;21516;-57
2022/01/28 05:56:05;;;;;;;41.75;23.20;;;;;;;3.83;41.69;100232.73;1718841;81;21094;-58
2022/01/28 05:58:33;;;;;;;46.98;24.37;;;;;;;4.04;41.46;100233.32;1682992;83;21000;-61
2022/01/28 06:01:00;;;;;;;68.62;31.50;;;;;;;4.03;41.51;100238.62;1696843;83;21016;-62
2022/01/28 06:03:27;;;;;;;254.68;93.52;;;;;;;4.19;41.12;100249.16;1701222;82;21493;-60
2022/01/28 06:05:53;;;;;;;140.68;52.40;;;;;;;4.19;41.12;100249.16;1717839;81;21137;-60
2022/01/28 06:08:20;;;;;;;159.03;60.67;;;;;;;3.93;41.75;100246.87;1685323;83;21186;-56
2022/01/28 06:10:47;;;;;;;189.85;73.70;;;;;;;4.03;41.75;100243.31;1752762;80;21483;-59
2022/01/28 06:13:13;;;;;;;88.20;38.92;;;;;;;4.07;41.95;100233.05;1756567;80;21157;-59
2022/01/28 06:15:41;;;;;;;81.35;39.60;;;;;;;4.07;41.95;100233.05;1751831;80;21061;-71
2022/01/28 06:18:10;;;;;;;72.15;37.40;;;;;;;4.22;41.51;100232.11;1754243;80;21072;-57
2022/01/28 06:20:38;;;;;;;58.28;30.32;;;;;;;4.12;41.84;100237.77;1754777;81;20855;-70
2022/01/28 06:23:05;;;;;;;48.95;26.77;;;;;;;4.41;41.44;100232.50;1753633;81;21350;-58
2022/01/28 06:25:33;;;;;;;38.23;21.75;;;;;;;4.34;41.47;100230.95;1754520;80;21136;-70
2022/01/28 06:27:59;;;;;;;34.53;18.60;;;;;;;4.34;41.47;100218.05;1754172;81;20935;-59
2022/01/28 06:30:26;;;;;;;91.30;42.60;;;;;;;4.42;41.25;100230.23;1753772;81;20970;-58
2022/01/28 06:32:53;;;;;;;41.55;20.57;;;;;;;4.56;41.41;100230.25;1752027;81;21032;-59
2022/01/28 06:35:20;;;;;;;54.53;29.70;;;;;;;4.77;40.92;100223.06;1754113;81;21603;-58
2022/01/28 06:37:48;;;;;;;47.27;26.05;;;;;;;4.77;40.92;100223.06;1753638;81;21158;-64
2022/01/28 06:40:16;;;;;;;56.13;27.35;;;;;;;4.73;41.19;100217.83;1753812;81;22468;-58
2022/01/28 06:42:43;;;;;;;102.40;43.98;;;;;;;4.81;41.08;100216.64;1752595;80;20979;-59
2022/01/28 06:45:10;;;;;;;160.12;66.77;;;;;;;4.92;40.82;100217.36;1754895;80;21597;-58
2022/01/28 06:47:39;;;;;;;108.90;45.83;;;;;;;4.97;40.68;100219.85;1755286;80;20831;-61
2022/01/28 06:50:08;;;;;;;36.95;19.30;;;;;;;5.01;40.72;100213.43;1754526;80;21145;-58
2022/01/28 06:52:35;;;;;;;59.33;34.92;;;;;;;4.96;40.57;100218.20;1754345;80;20958;-59
2022/01/28 06:55:02;;;;;;;82.35;42.75;;;;;;;4.98;40.61;100214.20;1753002;80;21430;-58
2022/01/28 06:57:30;;;;;;;90.22;37.03;;;;;;;4.92;40.83;100221.23;1754798;80;21037;-58
2022/01/28 06:59:57;;;;;;;36.23;20.17;;;;;;;4.92;40.96;100220.75;1753575;80;21050;-59
2022/01/28 07:02:24;;;;;;;44.70;24.05;;;;;;;4.99;40.90;100220.50;1754435;80;22426;-68
2022/01/28 07:04:51;;;;;;;87.78;40.20;;;;;;;5.04;40.84;100210.55;1753051;80;20911;-58
2022/01/28 07:07:20;;;;;;;50.05;25.92;;;;;;;5.08;40.71;100204.13;1754777;80;20987;-58
2022/01/28 07:09:48;;;;;;;42.43;21.87;;;;;;;4.99;40.86;100210.16;1753490;80;20899;-57
2022/01/28 07:12:15;;;;;;;51.28;24.30;;;;;;;5.10;40.89;100209.94;1753856;80;21089;-57
2022/01/28 07:14:42;;;;;;;59.48;30.77;;;;;;;5.41;40.63;100201.78;1753053;80;21085;-57
2022/01/28 07:17:09;;;;;;;55.83;26.45;;;;;;;5.40;40.62;100192.41;1754888;80;22361;-59
2022/01/28 07:19:35;;;;;;;36.77;19.32;;;;;;;5.37;40.67;100199.17;1753799;80;21049;-60
2022/01/28 07:22:02;;;;;;;29.27;15.55;;;;;;;5.59;40.51;100207.73;1752954;80;21045;-58
2022/01/28 07:24:29;;;;;;;38.42;18.48;;;;;;;5.84;40.20;100205.30;1753980;80;20974;-66
2022/01/28 07:26:56;;;;;;;35.50;19.52;;;;;;;5.85;40.14;100203.03;1749218;81;21128;-58
2022/01/28 07:29:27;;;;;;;51.45;22.82;;;;;;;5.98;40.02;100203.93;1749792;81;20993;-57
2022/01/28 07:31:51;;;;;;;36.85;18.45;;;;;;;5.72;40.56;100200.03;1748658;81;21082;-60
2022/01/28 07:34:18;;;;;;;34.05;18.02;;;;;;;5.90;40.43;100199.98;1748869;81;21598;-68
2022/01/28 07:36:44;;;;;;;29.07;16.23;;;;;;;6.11;40.35;100195.76;1749192;81;20962;-57
2022/01/28 07:39:11;;;;;;;32.00;17.48;;;;;;;5.97;40.44;100192.78;1749865;81;21831;-57
2022/01/28 07:41:37;;;;;;;52.25;31.17;;;;;;;6.04;40.56;100187.31;1749166;81;20938;-61
2022/01/28 07:44:06;;;;;;;41.08;21.48;;;;;;;6.08;40.68;100186.03;1749737;81;21157;-60
2022/01/28 07:46:34;;;;;;;32.40;18.40;;;;;;;6.18;40.70;100185.12;1748900;81;21100;-66
2022/01/28 07:49:01;;;;;;;27.77;15.90;;;;;;;6.26;40.59;100185.95;1749684;81;21326;-57
2022/01/28 07:51:27;;;;;;;33.58;18.27;;;;;;;5.20;41.54;100185.81;1749539;81;21145;-60
2022/01/28 07:53:54;;;;;;;31.87;16.40;;;;;;;4.87;42.69;100203.13;1749007;81;20946;-57
2022/01/28 07:56:22;;;;;;;31.00;16.80;;;;;;;4.59;43.44;100198.98;1749671;81;21591;-58
2022/01/28 07:58:49;;;;;;;30.23;15.93;;;;;;;4.66;43.54;100204.35;1749280;81;20987;-60
2022/01/28 08:01:15;;;;;;;48.83;24.77;;;;;;;4.91;43.05;100198.95;1749715;81;21117;-59
2022/01/28 08:03:42;;;;;;;41.23;20.37;;;;;;;5.00;42.99;100200.19;1748119;80;21090;-60
2022/01/28 08:06:08;;;;;;;32.05;17.05;;;;;;;5.14;43.22;100192.38;1749818;81;22411;-58
2022/01/28 08:08:35;;;;;;;32.60;16.95;;;;;;;5.12;43.05;100191.23;1749441;81;21026;-73
2022/01/28 08:11:01;;;;;;;104.85;41.25;;;;;;;5.33;42.72;100188.31;1747176;80;21018;-58
2022/01/28 08:13:28;;;;;;;45.80;22.50;;;;;;;5.22;42.97;100195.50;1710143;83;21126;-62
2022/01/28 08:15:54;;;;;;;34.92;18.35;;;;;;;4.77;43.64;100198.98;1681258;83;21506;-58
2022/01/28 08:18:23;;;;;;;32.90;16.42;;;;;;;4.56;44.27;100201.84;1679653;84;21010;-57
2022/01/28 08:20:52;;;;;;;34.35;17.05;;;;;;;4.72;44.26;100205.07;1685785;84;21061;-59
2022/01/28 08:23:18;;;;;;;32.03;16.60;;;;;;;4.67;44.16;100201.64;1682044;84;20991;-58
2022/01/28 08:25:45;;;;;;;28.87;16.27;;;;;;;4.59;44.45;100203.66;1682713;83;20960;-71
2022/01/28 08:28:12;;;;;;;29.12;15.98;;;;;;;4.60;44.33;100205.77;1667617;84;22829;-60
2022/01/28 08:30:40;;;;;;;28.30;16.27;;;;;;;4.52;44.58;100201.33;1669853;84;20995;-70
2022/01/28 08:33:07;;;;;;;32.85;18.00;;;;;;;4.70;44.61;100200.52;1669874;84;21047;-60
2022/01/28 08:35:37;;;;;;;28.35;15.48;;;;;;;4.65;44.72;100200.97;1669275;84;21103;-61
2022/01/28 08:38:02;;;;;;;33.10;18.15;;;;;;;4.91;44.66;100193.80;1666608;84;21517;-69
2022/01/28 08:40:30;;;;;;;32.38;16.62;;;;;;;5.04;44.49;100189.08;1685317;83;21164;-63
2022/01/28 08:42:57;;;;;;;33.45;15.75;;;;;;;5.29;44.31;100187.00;1655943;85;21170;-63
2022/01/28 08:45:23;;;;;;;32.40;16.87;;;;;;;5.00;44.33;100176.94;1662158;85;21026;-58
2022/01/28 08:47:50;;;;;;;47.93;22.48;;;;;;;4.86;44.75;100180.84;1667717;84;21041;-61
2022/01/28 08:50:17;;;;;;;48.20;23.52;;;;;;;5.12;44.47;100180.91;1654394;85;20978;-62
2022/01/28 08:52:46;;;;;;;79.95;32.08;;;;;;;5.22;44.16;100174.34;1660058;84;21151;-70
2022/01/28 08:55:12;;;;;;;68.22;29.67;;;;;;;5.48;43.93;100160.14;1684433;83;21209;-64
2022/01/28 08:57:43;;;;;;;37.25;19.07;;;;;;;5.56;43.83;100160.19;1685888;83;21078;-61
2022/01/28 09:00:11;;;;;;;35.52;18.07;;;;;;;5.55;43.87;100157.28;1680744;83;21070;-70
2022/01/28 09:02:38;;;;;;;44.50;19.90;;;;;;;5.56;43.96;100149.05;1661357;84;21141;-62
2022/01/28 09:05:05;;;;;;;53.25;25.72;;;;;;;5.59;44.15;100148.25;1684872;83;21176;-66
2022/01/28 09:07:33;;;;;;;51.53;24.85;;;;;;;5.61;44.26;100151.52;1681413;83;21129;-60
2022/01/28 09:10:06;;;;;;;55.80;25.75;;;;;;;5.88;44.01;100145.02;1687737;83;21510;-59
2022/01/28 09:12:38;;;;;;;57.95;27.42;;;;;;;5.73;44.00;100138.31;1654853;85;21375;-70
2022/01/28 09:14:59;;;;;;;52.70;25.10;;;;;;;5.86;43.74;100131.73;1660648;84;22252;-62
2022/01/28 09:17:27;;;;;;;56.60;26.95;;;;;;;5.94;43.68;100120.64;1661786;84;23173;-63
2022/01/28 09:19:55;;;;;;;50.05;26.27;;;;;;;5.78;43.85;100114.89;1686084;83;21081;-58
2022/01/28 09:22:22;;;;;;;48.40;25.02;;;;;;;5.77;43.94;100115.86;1655067;85;21099;-62
2022/01/28 09:24:49;;;;;;;150.15;55.20;;;;;;;6.15;43.63;100116.84;1662794;84;21124;-59
2022/01/28 09:27:17;;;;;;;219.72;70.62;;;;;;;6.11;43.82;100111.66;1683490;83;22313;-59
2022/01/28 09:29:43;;;;;;;197.32;74.77;;;;;;;6.12;43.61;100103.72;1671433;84;21012;-59
2022/01/28 09:32:12;;;;;;;203.40;76.02;;;;;;;6.25;43.73;100100.67;1719267;81;21002;-69
2022/01/28 09:34:41;;;;;;;61.08;32.40;;;;;;;6.35;43.56;100103.94;1719017;81;21015;-60
2022/01/28 09:37:07;;;;;;;65.65;35.52;;;;;;;6.33;43.48;100098.13;1719716;81;20955;-60
2022/01/28 09:39:39;;;;;;;39.88;20.32;;;;;;;5.73;44.65;100106.80;1718190;81;21010;-62
2022/01/28 09:42:11;;;;;;;38.50;21.45;;;;;;;5.44;45.24;100110.20;1720380;81;21126;-68
2022/01/28 09:44:33;;;;;;;33.67;19.85;;;;;;;5.82;45.11;100110.22;1719381;81;21137;-60
2022/01/28 09:47:00;;;;;;;33.58;20.10;;;;;;;5.95;44.83;100113.23;1691928;83;20958;-64
2022/01/28 09:49:27;;;;;;;68.12;31.35;;;;;;;6.00;44.86;100096.73;1720672;81;21121;-60
2022/01/28 09:51:54;;;;;;;123.13;44.20;;;;;;;5.76;45.12;100092.27;1720877;81;21102;-58
2022/01/28 09:54:20;;;;;;;231.90;69.12;;;;;;;5.45;45.61;100090.64;1719867;81;21122;-60
2022/01/28 09:56:47;;;;;;;107.65;43.92;;;;;;;5.47;45.89;100077.59;1683344;83;22496;-69
2022/01/28 09:59:13;;;;;;;127.35;43.23;;;;;;;5.26;46.51;100079.23;1661256;84;21428;-59
2022/01/28 10:01:52;;;;;;;207.85;69.03;;;;;;;5.10;47.05;100079.47;1678238;83;22341;-59
2022/01/28 10:04:19;;;;;;;101.00;39.85;;;;;;;5.29;46.96;100075.06;1680941;83;21517;-58
2022/01/28 10:06:47;;;;;;;139.32;51.15;;;;;;;5.18;47.36;100072.73;1682342;83;21958;-63
2022/01/28 10:09:17;;;;;;;100.47;47.55;;;;;;;5.33;47.53;100077.18;1685460;83;21044;-61
2022/01/28 10:11:46;;;;;;;134.93;56.95;;;;;;;5.49;47.19;100072.59;1683777;85;21473;-59
2022/01/28 10:14:25;;;;;;;69.85;36.95;;;;;;;5.75;46.88;100066.54;1685411;85;21072;-62
2022/01/28 10:16:41;;;;;;;46.75;26.82;;;;;;;5.50;47.15;100065.16;1683500;84;21099;-60
2022/01/28 10:19:11;;;;;;;35.95;21.97;;;;;;;5.26;47.62;100058.08;1684349;85;21103;-58
2022/01/28 10:21:43;;;;;;;49.75;26.15;;;;;;;5.48;47.45;100058.03;1684778;85;21085;-60
2022/01/28 10:24:23;;;;;;;276.18;89.10;;;;;;;5.72;47.10;100064.27;1684598;85;20954;-60
2022/01/28 10:27:07;;;;;;;344.18;108.25;;;;;;;5.45;47.61;100057.52;1710092;82;21078;-58
2022/01/28 10:29:37;;;;;;;184.60;69.45;;;;;;;5.46;47.98;100055.30;1719718;82;21184;-59
2022/01/28 10:32:17;;;;;;;70.85;33.42;;;;;;;5.40;48.00;100050.24;1715385;83;21490;-59
2022/01/28 10:34:49;;;;;;;47.25;25.37;;;;;;;5.45;48.08;100051.87;1694364;83;20991;-56
2022/01/28 10:37:30;;;;;;;32.65;18.40;;;;;;;5.55;48.16;100043.52;1711173;83;21034;-65
2022/01/28 10:39:59;;;;;;;36.58;19.60;;;;;;;5.47;48.32;100049.15;1719017;81;21086;-58
2022/01/28 10:42:48;;;;;;;38.50;21.97;;;;;;;5.38;48.50;100057.36;1722642;81;21075;-58
2022/01/28 10:45:14;;;;;;;29.55;16.62;;;;;;;5.69;48.45;100053.77;1719611;81;21108;-60
2022/01/28 10:47:48;;;;;;;34.18;19.60;;;;;;;5.76;48.45;100050.89;1721728;81;21070;-60
2022/01/28 10:50:36;;;;;;;34.38;18.25;;;;;;;5.32;49.07;100038.58;1715392;81;21185;-57
2022/01/28 10:53:12;;;;;;;30.60;16.25;;;;;;;5.47;49.04;100027.98;1695413;83;21161;-62
2022/01/28 10:55:45;;;;;;;30.75;18.55;;;;;;;5.56;49.04;100036.08;1721697;81;21057;-59
2022/01/28 10:58:15;;;;;;;33.30;17.87;;;;;;;5.32;49.46;100041.97;1724319;81;21140;-57
2022/01/28 11:00:43;;;;;;;31.93;18.50;;;;;;;5.28;49.61;100035.97;1719849;81;21564;-57
2022/01/28 11:03:12;;;;;;;32.58;19.35;;;;;;;5.31;49.99;100029.21;1722002;81;21497;-57
2022/01/28 11:05:39;;;;;;;32.30;18.25;;;;;;;5.45;50.04;100025.21;1720623;81;21120;-58
2022/01/28 11:08:08;;;;;;;31.33;18.85;;;;;;;5.55;49.90;100022.84;1722330;81;20955;-60
2022/01/28 11:10:36;;;;;;;38.40;20.15;;;;;;;5.55;49.92;100025.91;1721312;81;21131;-62
2022/01/28 11:13:03;;;;;;;38.28;20.72;;;;;;;5.91;49.79;100023.09;1692220;84;21829;-65
2022/01/28 11:15:30;;;;;;;39.15;23.32;;;;;;;6.26;48.94;100020.78;1691075;83;22357;-58
2022/01/28 11:17:58;;;;;;;29.95;19.45;;;;;;;6.37;48.51;100016.58;1722128;81;20908;-58
2022/01/28 11:20:36;;;;;;;44.05;24.20;;;;;;;6.58;48.22;100009.11;1723174;81;20967;-65
2022/01/28 11:23:52;;;;;;;34.20;19.60;;;;;;;6.33;48.46;100006.22;1696996;81;21062;-59
2022/01/28 11:26:26;;;;;;;35.85;19.62;;;;;;;6.34;48.65;100006.05;1717654;81;21109;-62
2022/01/28 11:28:55;;;;;;;36.42;20.62;;;;;;;6.63;48.30;99998.74;1713129;82;22464;-61
2022/01/28 11:31:49;;;;;;;36.55;21.15;;;;;;;6.68;47.83;99993.90;1714048;82;20986;-67
2022/01/28 11:34:28;;;;;;;38.33;19.77;;;;;;;6.67;47.64;99991.80;1713534;83;21593;-58
2022/01/28 11:37:05;;;;;;;37.45;20.30;;;;;;;6.72;47.58;99993.89;1714110;82;21797;-69
2022/01/28 11:39:35;;;;;;;37.53;19.73;;;;;;;6.54;47.77;99986.30;1730849;82;21121;-60
2022/01/28 11:42:13;;;;;;;137.77;60.28;;;;;;;6.44;48.54;99981.30;1711500;83;21605;-59
2022/01/28 11:44:50;;;;;;;198.05;79.25;;;;;;;6.56;47.97;99979.99;1695501;83;21096;-58
2022/01/28 11:47:25;;;;;;;60.10;30.43;;;;;;;6.48;48.25;99979.20;1700519;83;21680;-61
2022/01/28 11:50:10;;;;;;;43.60;27.17;;;;;;;6.55;48.22;99976.25;1695780;83;21245;-58
2022/01/28 11:52:42;;;;;;;34.20;21.42;;;;;;;6.48;48.44;99974.83;1725347;81;21003;-61
2022/01/28 11:55:21;;;;;;;37.00;21.70;;;;;;;6.53;48.49;99966.07;1698235;83;21102;-58
2022/01/28 11:58:03;;;;;;;29.80;19.75;;;;;;;6.56;48.67;99957.17;1727682;81;21521;-58
2022/01/28 12:00:35;;;;;;;31.02;18.42;;;;;;;6.72;48.33;99949.37;1691718;83;21033;-67
2022/01/28 12:03:17;;;;;;;32.93;18.80;;;;;;;6.80;48.18;99951.12;1698390;83;21884;-58
2022/01/28 12:05:50;;;;;;;33.58;19.82;;;;;;;6.65;48.46;99948.41;1723677;81;21501;-57
2022/01/28 12:08:17;;;;;;;34.13;20.40;;;;;;;6.47;49.03;99944.70;1694228;83;21456;-59
2022/01/28 12:10:47;;;;;;;32.40;18.77;;;;;;;6.69;48.97;99945.00;1727354;81;21581;-57
2022/01/28 12:13:17;;;;;;;38.85;21.45;;;;;;;7.04;48.44;99946.35;1725311;81;21042;-59
2022/01/28 12:18:55;;;;;;;34.00;19.07;;;;;;;6.96;48.69;99945.89;1726081;81;21034;-57
2022/01/28 12:21:25;;;;;;;35.45;18.85;;;;;;;7.02;48.60;99941.34;1724604;81;21517;-65
2022/01/28 12:24:12;;;;;;;36.50;19.98;;;;;;;6.90;49.00;99939.30;1726365;81;21519;-62
2022/01/28 12:27:05;;;;;;;204.87;93.05;;;;;;;6.91;49.22;99934.42;1725250;81;21308;-64
2022/01/28 12:29:42;;;;;;;46.05;28.17;;;;;;;7.10;49.12;99942.30;1718971;81;21165;-58
2022/01/28 12:32:10;;;;;;;36.30;21.90;;;;;;;6.88;49.59;99939.45;1720646;81;21033;-59
2022/01/28 12:34:45;;;;;;;37.88;21.42;;;;;;;6.97;49.88;99935.88;1694690;83;21027;-66
2022/01/28 12:37:12;;;;;;;84.30;41.58;;;;;;;7.09;49.74;99932.91;1718217;81;22297;-57
2022/01/28 12:39:44;;;;;;;363.80;150.75;;;;;;;7.15;49.78;99932.22;1720400;81;21023;-58
2022/01/28 12:42:22;;;;;;;186.60;85.97;;;;;;;7.24;49.77;99933.82;1719586;81;21128;-62
2022/01/28 12:44:41;;;;;;;438.72;254.23;;;;;;;7.16;50.00;99926.05;1718767;81;22447;-66
2022/01/28 12:47:09;;;;;;;228.18;133.12;;;;;;;7.20;50.10;99926.06;1719759;81;21184;-60
2022/01/28 12:49:38;;;;;;;92.80;54.05;;;;;;;7.30;50.00;99914.97;1720389;81;20967;-59
2022/01/28 12:52:08;;;;;;;214.57;153.68;;;;;;;7.50;49.67;99913.59;1720219;81;21098;-67
2022/01/28 12:54:39;;;;;;;173.90;104.65;;;;;;;7.38;49.72;99907.64;1718554;81;21133;-58
2022/01/28 12:57:09;;;;;;;43.20;26.07;;;;;;;7.37;49.68;99910.73;1718930;81;26930;-59
2022/01/28 12:59:38;;;;;;;38.00;21.57;;;;;;;7.33;49.80;99904.27;1718341;81;20955;-57
2022/01/28 13:02:06;;;;;;;41.83;25.12;;;;;;;7.23;50.22;99900.58;1721315;81;21133;-67
2022/01/28 13:04:48;;;;;;;44.03;24.35;;;;;;;7.30;50.28;99900.22;1720824;81;21630;-58
2022/01/28 13:09:50;;;;;;;31.77;17.48;;;;;;;7.33;50.46;99896.49;1719889;81;21555;-70
2022/01/28 13:12:23;;;;;;;39.67;23.67;;;;;;;7.41;50.40;99889.95;1712216;81;21113;-57
2022/01/28 13:14:50;;;;;;;32.03;17.67;;;;;;;7.34;50.45;99881.73;1718666;81;21627;-61
2022/01/28 13:17:22;;;;;;;30.08;17.00;;;;;;;7.28;50.82;99881.95;1722301;81;20990;-58
2022/01/28 13:19:57;;;;;;;29.27;16.77;;;;;;;7.17;51.11;99874.06;1716587;81;21940;-58
2022/01/28 13:22:26;;;;;;;29.72;17.42;;;;;;;7.04;51.59;99873.79;1721681;81;21132;-60
2022/01/28 13:24:53;;;;;;;34.55;18.23;;;;;;;7.07;51.76;99869.08;1718919;81;21078;-58
2022/01/28 13:27:21;;;;;;;38.20;19.12;;;;;;;7.18;51.51;99864.50;1715327;81;20967;-68
2022/01/28 13:29:53;;;;;;;30.15;17.48;;;;;;;7.28;51.41;99865.90;1710125;82;21019;-57
2022/01/28 13:32:25;;;;;;;28.70;15.88;;;;;;;7.40;51.16;99859.83;1710010;82;21227;-64
2022/01/28 13:34:58;;;;;;;33.35;18.15;;;;;;;7.51;50.62;99852.95;1688437;82;21217;-60
2022/01/28 13:37:38;;;;;;;230.05;107.03;;;;;;;7.46;50.57;99849.24;1752866;80;20970;-70
2022/01/28 13:40:19;;;;;;;50.17;30.75;;;;;;;7.50;50.43;99850.51;1749553;80;21134;-62
2022/01/28 13:43:16;;;;;;;42.62;26.12;;;;;;;7.47;50.43;99850.88;1754720;80;20997;-58
2022/01/28 13:45:58;;;;;;;41.85;19.92;;;;;;;7.42;50.67;99848.78;1751721;80;21202;-58
2022/01/28 13:48:38;;;;;;;37.78;19.77;;;;;;;7.49;50.68;99845.02;1754288;80;21070;-65
2022/01/28 13:51:20;;;;;;;43.70;24.40;;;;;;;7.60;50.45;99829.54;1752789;80;21445;-59
2022/01/28 13:56:36;;;;;;;40.70;22.87;;;;;;;7.43;50.73;99831.46;1756698;80;21170;-60
2022/01/28 13:59:23;;;;;;;32.33;18.65;;;;;;;7.32;51.13;99828.77;1754107;80;21213;-60
2022/01/28 14:01:50;;;;;;;31.62;18.07;;;;;;;7.37;51.05;99813.98;1754635;80;20927;-61
2022/01/28 14:04:32;;;;;;;34.03;19.15;;;;;;;7.46;50.77;99806.45;1755352;80;21322;-63
2022/01/28 14:07:20;;;;;;;38.02;18.05;;;;;;;7.35;51.25;99817.23;1755440;80;21085;-59
2022/01/28 14:09:56;;;;;;;30.77;17.40;;;;;;;7.38;51.44;99805.22;1754213;80;21093;-57
2022/01/28 14:12:45;;;;;;;39.88;21.20;;;;;;;7.11;51.67;99810.42;1753902;81;21615;-62
2022/01/28 14:15:40;;;;;;;463.22;221.45;;;;;;;6.99;52.65;99811.30;1720736;81;21056;-58
2022/01/28 14:18:02;;;;;;;285.25;132.80;;;;;;;7.12;52.60;99814.12;1753756;80;40370;-66
2022/01/28 14:20:30;;;;;;;109.63;76.92;;;;;;;7.22;52.40;99801.77;1756653;80;21060;-67
2022/01/28 14:22:59;;;;;;;50.05;29.40;;;;;;;7.14;52.61;99799.23;1688289;83;21606;-58
2022/01/28 14:25:26;;;;;;;45.40;26.77;;;;;;;7.33;52.44;99790.19;1691264;83;22116;-59
2022/01/28 14:28:11;;;;;;;40.08;23.05;;;;;;;7.19;52.80;99790.93;1697298;83;21121;-58
2022/01/28 14:30:39;;;;;;;50.78;26.25;;;;;;;7.23;52.99;99794.30;1694235;82;21042;-61
2022/01/28 14:32:56;;;;;;;54.98;30.27;;;;;;;7.22;53.16;99784.91;1690928;83;21149;-66
2022/01/28 14:35:23;;;;;;;46.15;23.42;;;;;;;7.15;53.68;99763.74;1695682;83;21184;-58
2022/01/28 14:37:50;;;;;;;42.13;21.97;;;;;;;6.93;55.19;99770.05;1695146;84;21076;-58
2022/01/28 14:40:16;;;;;;;40.40;22.93;;;;;;;7.01;55.56;99757.05;1690764;84;21029;-59
2022/01/28 14:42:43;;;;;;;50.92;24.35;;;;;;;6.76;56.04;99752.48;1695333;83;21630;-69
2022/01/28 14:45:10;;;;;;;34.18;20.35;;;;;;;7.06;56.05;99743.56;1696797;84;21116;-59
2022/01/28 14:47:37;;;;;;;38.42;21.17;;;;;;;7.01;55.95;99737.61;1690829;83;21116;-61
2022/01/28 14:50:05;;;;;;;47.35;23.25;;;;;;;7.14;55.73;99724.55;1696813;83;21159;-59
2022/01/28 14:52:34;;;;;;;66.53;30.27;;;;;;;7.05;55.91;99725.92;1696821;83;20946;-60
2022/01/28 14:55:01;;;;;;;59.48;29.63;;;;;;;7.31;55.60;99723.43;1693914;83;21076;-60
2022/01/28 14:57:28;;;;;;;57.90;30.95;;;;;;;7.44;55.04;99713.28;1698101;83;21088;-59
2022/01/28 14:59:55;;;;;;;79.90;38.20;;;;;;;7.35;54.90;99710.46;1698764;83;21026;-58
2022/01/28 15:02:24;;;;;;;55.90;31.82;;;;;;;7.35;54.90;99718.24;1696739;84;21569;-67
2022/01/28 15:04:56;;;;;;;47.78;27.52;;;;;;;7.49;54.64;99723.12;1696011;84;20962;-59
2022/01/28 15:07:28;;;;;;;239.40;113.85;;;;;;;7.59;54.30;99712.02;1696802;84;21523;-57
2022/01/28 15:09:54;;;;;;;835.43;422.05;;;;;;;7.69;54.34;99718.23;1697284;83;21142;-57
2022/01/28 15:12:19;;;;;;;114.88;74.10;;;;;;;7.78;53.60;99719.78;1697323;83;21114;-68
2022/01/28 15:14:46;;;;;;;45.20;32.00;;;;;;;7.75;53.73;99711.84;1696757;83;21875;-61
2022/01/28 15:17:18;;;;;;;37.15;23.95;;;;;;;7.80;53.79;99713.91;1696691;83;21569;-63
2022/01/28 15:19:45;;;;;;;51.25;28.60;;;;;;;7.76;53.84;99711.35;1668661;83;21042;-58
2022/01/28 15:22:11;;;;;;;39.98;24.67;;;;;;;7.53;54.56;99708.33;1712709;81;20993;-66
2022/01/28 15:24:38;;;;;;;36.83;20.43;;;;;;;7.73;54.66;99704.75;1732378;81;20996;-59
2022/01/28 15:27:05;;;;;;;42.50;23.80;;;;;;;7.67;55.04;99704.65;1732341;81;22080;-64
2022/01/28 15:37:13;;;;;;;34.08;18.10;;;;;;;7.85;54.67;99688.25;1732429;81;21099;-59
2022/01/28 15:39:39;;;;;;;37.20;20.27;;;;;;;7.84;55.03;99686.64;1732899;81;21222;-59
2022/01/28 15:42:09;;;;;;;37.67;18.57;;;;;;;7.98;54.62;99683.22;1732224;81;21047;-68
2022/01/28 15:44:37;;;;;;;30.95;18.42;;;;;;;7.74;54.60;99683.00;1731379;81;22488;-68
2022/01/28 15:47:06;;;;;;;29.02;16.87;;;;;;;7.89;55.12;99688.70;1727988;81;21012;-58
2022/01/28 15:49:34;;;;;;;226.37;86.65;;;;;;;7.53;56.19;99686.28;1726575;81;21075;-58
2022/01/28 15:52:00;;;;;;;67.85;36.75;;;;;;;7.50;56.93;99681.94;1726472;81;21144;-69
2022/01/28 15:54:27;;;;;;;37.73;22.65;;;;;;;7.76;56.49;99690.10;1725333;81;21065;-68
2022/01/28 15:56:53;;;;;;;46.77;28.10;;;;;;;7.79;56.38;99688.95;1721607;81;22498;-59
2022/01/28 15:59:20;;;;;;;41.53;22.93;;;;;;;7.58;57.27;99679.76;1728786;81;21024;-65
2022/01/28 16:01:46;;;;;;;77.12;42.00;;;;;;;7.78;57.15;99691.23;1723953;81;21060;-58
2022/01/28 16:04:15;;;;;;;38.05;22.50;;;;;;;7.91;56.42;99683.62;1723556;81;21244;-68
2022/01/28 16:06:42;;;;;;;49.25;25.97;;;;;;;7.85;56.25;99689.54;1722571;81;21105;-56
2022/01/28 16:09:10;;;;;;;38.23;20.97;;;;;;;7.44;57.07;99689.95;1712853;82;21049;-60
2022/01/28 16:11:47;;;;;;;37.60;22.05;;;;;;;7.77;56.86;99690.94;1684689;83;21075;-58
2022/01/28 16:14:35;;;;;;;33.88;19.60;;;;;;;7.84;56.75;99678.03;1710109;83;20953;-70
2022/01/28 16:17:23;;;;;;;45.58;27.20;;;;;;;7.75;56.73;99665.64;1708563;83;22141;-61
2022/01/28 16:19:36;;;;;;;39.63;22.13;;;;;;;7.85;56.78;99667.48;1709554;83;21527;-63
2022/01/28 16:22:04;;;;;;;42.48;25.37;;;;;;;7.53;57.67;99668.63;1702849;83;21100;-70
2022/01/28 16:24:31;;;;;;;43.85;24.10;;;;;;;7.35;57.65;99662.96;1702654;83;21139;-58
2022/01/28 16:26:58;;;;;;;49.13;27.10;;;;;;;7.28;59.26;99661.59;1703113;83;21567;-58
2022/01/28 16:29:25;;;;;;;45.80;23.35;;;;;;;7.61;60.06;99659.95;1709595;83;21589;-61
2022/01/28 16:31:52;;;;;;;48.38;25.08;;;;;;;7.64;59.46;99658.30;1707943;83;21478;-59
2022/01/28 16:34:20;;;;;;;40.85;22.93;;;;;;;7.80;58.83;99650.33;1708925;83;21080;-60
2022/01/28 16:36:50;;;;;;;35.20;18.10;;;;;;;7.80;58.74;99649.03;1718415;81;21134;-58
2022/01/28 16:39:18;;;;;;;33.38;19.32;;;;;;;7.47;61.28;99660.27;1719163;81;20949;-58
2022/01/28 16:41:45;;;;;;;37.53;21.77;;;;;;;7.36;61.95;99655.02;1717786;81;21141;-63
2022/01/28 16:44:18;;;;;;;39.13;22.37;;;;;;;7.80;61.07;99649.03;1715644;82;20940;-62
2022/01/28 16:46:46;;;;;;;29.85;18.73;;;;;;;7.54;61.30;99652.91;1716342;82;21504;-60
2022/01/28 16:49:13;;;;;;;30.60;17.27;;;;;;;7.63;62.20;99652.81;1719547;81;21043;-57
2022/01/28 16:51:40;;;;;;;30.55;16.87;;;;;;;7.68;61.30;99642.70;1714654;81;20893;-59
2022/01/28 16:54:08;;;;;;;30.57;17.67;;;;;;;7.65;62.85;99640.45;1717833;82;21904;-63
2022/01/28 16:56:36;;;;;;;31.87;19.92;;;;;;;7.53;64.55;99637.00;1715642;81;21562;-59
2022/01/28 16:59:03;;;;;;;31.00;18.25;;;;;;;7.63;64.66;99630.27;1716048;81;21145;-61
2022/01/28 17:01:30;;;;;;;33.85;18.70;;;;;;;7.51;65.62;99632.51;1717065;81;21511;-70
2022/01/28 17:03:58;;;;;;;41.55;20.00;;;;;;;7.37;68.32;99626.81;1717813;81;21130;-58
2022/01/28 17:06:28;;;;;;;38.45;21.07;;;;;;;8.04;67.16;99620.71;1716248;81;21166;-57
2022/01/28 17:08:57;;;;;;;41.65;21.77;;;;;;;8.01;62.00;99615.38;1684554;83;22105;-56
2022/01/28 17:14:01;;;;;;;40.73;21.12;;;;;;;7.58;69.21;99622.23;1685844;83;21025;-67